Current Conditions
Partly Cloudy
Conditions



Pressure
1018.92 (hPa) - 30.09 (inHG)
Visibility

7.0 (km) - 4.3 (miles)
Temperature
9  °C
Temperature
3  °C
Dewpoint
66  %
 Humidity
Wind Speed
2  km/h
1  kts
1  mph
0.4  m/s
Wind Direction
N
45°
E
90°
135°
S
180°
225°
W
270°
315°
 50°

North East
Airport Data
LIPI
Rivolto Air Base
Metar :LIPI 011355Z 05001KT 7000 FEW030 09/03 Q1019 RMK BKN SCT160 VIS MIN 7000 WIND THR06 03003KT WIND THR24 18002KT WHT
Wed 1st February 14:55 pm
Raw Metar Info
Raw METAR is the most common format in the world for the transmission of observational weather data. It is highly standardized through the International Civil Aviation Organization (ICAO), which allows it to be understood throughout most of the world.
API Info
Data Provided by
https://www.checkwx.com/weather/LIPI

Aviation Weather providing METAR, TAF, AIRMET, SIGMET and OUTLOOK Weather Reports
© Info
CSS/SVG/PHP scripts were developed by weather34 for use in the weather34 template © 2015-2023

Guide Info provided by Metar-Wikipedia